ADDS METAR Data INFO
IDs: Format: Raw Decoded Include TAF

Data at: 1837 UTC 17 Oct 2017

KLIC 171755Z AUTO 20011KT 10SM CLR 22/M11 A3024 RMK AO2 SLP200 T02221111 10228 21039 58009
KLIC 171655Z AUTO 16009KT 10SM CLR 21/M11 A3026 RMK AO2 SLP206 T02111106
KLIC 171555Z AUTO 23003KT 10SM CLR 17/M08 A3027 RMK AO2 SLP222 T01671078
KLIC 171455Z AUTO 29004KT 10SM CLR 12/M04 A3027 RMK AO2 SLP235 T01221044 53003
KLIC 171355Z AUTO 35003KT 10SM CLR 01/M04 A3026 RMK AO2 SLP249 T00061039
KLIC 171255Z AUTO 33003KT 10SM CLR M04/M06 A3026 RMK AO2 SLP256 T10391061
KLIC 171155Z AUTO 35004KT CLR M03/M06 A3026 RMK AO2 SLP231 T10331061 10044 21039 55001 $
KLIC 171055Z AUTO 33004KT CLR M01/M06 A3026 RMK AO2 SLP209 T10061061 $
KLIC 170955Z AUTO 30007KT CLR 03/M07 A3026 RMK AO2 SLP198 T00331067 $
KLIC 170855Z AUTO 30005KT CLR 00/M06 A3026 RMK AO2 SLP207 T00001056 50000 $
KLIC 170755Z AUTO 31005KT CLR 01/M06 A3027 RMK AO2 SLP210 T00061056 $
KLIC 170655Z AUTO 30006KT CLR 04/M06 A3027 RMK AO2 SLP201 T00441061 402561050 $
KLIC 170555Z AUTO 31004KT CLR 02/M05 A3026 RMK AO2 SLP207 T00221050 10161 20006 50002 $
KLIC 170455Z AUTO 34005KT CLR 03/M05 A3027 RMK AO2 SLP212 T00281050 $
KLIC 170355Z AUTO 34005KT CLR 02/M04 A3026 RMK AO2 SLP224 T00171044 $
KLIC 170255Z AUTO 00000KT CLR 01/M04 A3026 RMK AO2 SLP237 T00111044 51012 $
KLIC 170155Z AUTO 00000KT CLR 04/M06 A3025 RMK AO2 SLP249 T00441056 $
KLIC 170055Z AUTO 36005KT CLR 06/M04 A3023 RMK AO2 SLP249 T00561044 $
KLIC 162355Z AUTO 35006KT 10SM CLR 16/M09 A3022 RMK AO2 SLP218 T01611089 10256 20161 51002
KLIC 162255Z AUTO 31010KT 10SM CLR 24/M16 A3022 RMK AO2 SLP201 T02391161
KLIC 162155Z AUTO 31011G17KT 10SM CLR 25/M16 A3022 RMK AO2 SLP198 T02501161
KLIC 162055Z AUTO 29012KT 10SM CLR 26/M15 A3021 RMK AO2 SLP197 T02561150 56023
KLIC 161955Z AUTO 27011KT 240V310 10SM CLR 25/M15 A3023 RMK AO2 SLP202 T02501150
KLIC 161855Z AUTO 27009KT 10SM CLR 24/M16 A3026 RMK AO2 SLP215 T02441156
KLIC 161755Z AUTO 24008KT 10SM CLR 23/M13 A3029 RMK AO2 SLP224 T02331128 10233 21044 58017
KLIC 161655Z AUTO 20004KT 10SM CLR 20/M04 A3032 RMK AO2 SLP240 T02001044
KLIC 161555Z AUTO 14003KT 10SM CLR 14/M02 A3034 RMK AO2 SLP256 T01441017
KLIC 161455Z AUTO 00000KT 10SM CLR 09/02 A3035 RMK AO2 SLP262 T00890017 56005
KLIC 161355Z AUTO 36005KT 10SM CLR M02/M03 A3035 RMK AO2 SLP288 T10171033
KLIC 161255Z AUTO 33004KT 10SM CLR M04/M06 A3036 RMK AO2 SLP291 T10441056
KLIC 161155Z AUTO 33004KT 10SM CLR M04/M05 A3036 RMK AO2 SLP277 T10391050 11022 21050 56007
KLIC 161055Z AUTO 34003KT 10SM CLR M04/M06 A3037 RMK AO2 SLP273 T10441056
KLIC 160955Z AUTO 00000KT 10SM CLR M04/M06 A3037 RMK AO2 SLP273 T10441056
KLIC 160855Z AUTO 34005KT 10SM CLR M04/M06 A3039 RMK AO2 SLP276 T10441056 58012
KLIC 160755Z AUTO 01006KT 10SM CLR M04/M05 A3040 RMK AO2 SLP281 T10391050
KLIC 160655Z AUTO 35006KT 10SM CLR M03/M05 A3042 RMK AO2 SLP290 T10331050 401721078